createdAt,value
2018-09-21T00:00:30.653Z,68.81
2018-09-21T00:01:30.655Z,68.59
2018-09-21T00:02:30.654Z,68.39
2018-09-21T00:03:30.654Z,68.97
2018-09-21T00:04:30.653Z,68.97
2018-09-21T00:05:30.645Z,69.29
2018-09-21T00:06:30.645Z,68.71
2018-09-21T00:07:30.649Z,68.59
2018-09-21T00:08:30.648Z,68.87
2018-09-21T00:09:30.641Z,69.07
2018-09-21T00:10:30.640Z,68.97
2018-09-21T00:11:30.638Z,69.45
2018-09-21T00:12:30.637Z,69.07
2018-09-21T00:13:30.640Z,69.55
2018-09-21T00:14:30.637Z,69.16
2018-09-21T00:15:30.638Z,69.45
2018-09-21T00:16:30.636Z,69.74
2018-09-21T00:17:30.630Z,69.74
2018-09-21T00:18:30.630Z,69.74
2018-09-21T00:19:30.629Z,69.84
2018-09-21T00:20:30.627Z,69.74
2018-09-21T00:21:30.631Z,70.03
2018-09-21T00:22:30.629Z,70.22
2018-09-21T00:23:30.623Z,69.64
2018-09-21T00:24:30.625Z,69.64
2018-09-21T00:25:30.624Z,69.84
2018-09-21T00:26:30.624Z,69.74
2018-09-21T00:27:30.622Z,69.84
2018-09-21T00:28:30.620Z,69.74
2018-09-21T00:29:30.614Z,69.64
2018-09-21T00:30:30.612Z,69.84
2018-09-21T00:31:30.611Z,69.64
2018-09-21T00:32:30.611Z,70.03
2018-09-21T00:33:30.613Z,69.93
2018-09-21T00:34:30.611Z,70.03
2018-09-21T00:35:30.611Z,69.74
2018-09-21T00:36:30.610Z,69.84
2018-09-21T00:37:30.603Z,69.84
2018-09-21T00:38:30.602Z,70.13
2018-09-21T00:39:30.608Z,70.51
2018-09-21T00:40:30.604Z,70.51
2018-09-21T00:41:30.598Z,70.32
2018-09-21T00:42:30.596Z,70.03
2018-09-21T00:43:30.598Z,70.42
2018-09-21T00:44:30.594Z,70.32
2018-09-21T00:45:30.601Z,70.61
2018-09-21T00:46:30.596Z,70.80
2018-09-21T00:47:30.594Z,70.80
2018-09-21T00:48:30.593Z,70.90
2018-09-21T00:49:30.585Z,71.00
2018-09-21T00:50:30.585Z,70.80
2018-09-21T00:51:30.584Z,70.90
2018-09-21T00:52:30.582Z,70.70
2018-09-21T00:53:30.585Z,71.00
2018-09-21T00:54:30.583Z,71.44
2018-09-21T00:55:30.578Z,71.48
2018-09-21T00:56:30.578Z,71.44
2018-09-21T00:57:30.579Z,72.12
2018-09-21T00:58:30.576Z,71.58
2018-09-21T00:59:30.579Z,71.48
2018-09-21T01:00:30.575Z,71.44
2018-09-21T01:01:30.568Z,71.58
2018-09-21T01:02:30.568Z,71.77
2018-09-21T01:03:30.566Z,71.86
2018-09-21T01:04:30.566Z,71.86
2018-09-21T01:05:30.568Z,71.86
2018-09-21T01:06:30.567Z,72.15
2018-09-21T01:07:30.565Z,72.15
2018-09-21T01:08:30.566Z,71.86
2018-09-21T01:09:30.556Z,71.67
2018-09-21T01:10:30.560Z,72.15
2018-09-21T01:11:30.559Z,71.96
2018-09-21T01:12:30.556Z,71.96
2018-09-21T01:13:30.552Z,71.96
2018-09-21T01:14:30.549Z,71.96
2018-09-21T01:15:30.551Z,71.92
2018-09-21T01:16:30.551Z,72.12
2018-09-21T01:17:30.550Z,71.77
2018-09-21T01:18:30.549Z,71.83
2018-09-21T01:19:30.547Z,71.64
2018-09-21T01:20:30.546Z,71.64
2018-09-21T01:21:30.539Z,72.21
2018-09-21T01:22:30.540Z,72.50
2018-09-21T01:23:30.536Z,72.60
2018-09-21T01:24:30.534Z,72.69
2018-09-21T01:25:30.538Z,72.12
2018-09-21T01:26:30.536Z,72.60
2018-09-21T01:27:30.532Z,72.21
2018-09-21T01:28:30.529Z,72.50
2018-09-21T01:29:30.532Z,72.50
2018-09-21T01:30:30.530Z,72.50
2018-09-21T01:31:30.529Z,72.89
2018-09-21T01:32:30.528Z,72.89
2018-09-21T01:33:30.520Z,72.60
2018-09-21T01:34:30.520Z,72.89
2018-09-21T01:35:30.517Z,72.89
2018-09-21T01:36:30.518Z,72.50
2018-09-21T01:37:30.521Z,72.34
2018-09-21T01:38:30.519Z,72.41
2018-09-21T01:39:30.516Z,72.41
2018-09-21T01:40:30.514Z,72.79
2018-09-21T01:41:30.507Z,72.60
2018-09-21T01:42:30.509Z,72.99
2018-09-21T01:43:30.510Z,72.69
2018-09-21T01:44:30.509Z,73.08
2018-09-21T01:45:30.504Z,72.50
2018-09-21T01:46:30.525Z,72.79
2018-09-21T01:47:30.500Z,72.21
2018-09-21T01:48:30.497Z,72.21
2018-09-21T01:49:30.500Z,72.31
2018-09-21T01:50:30.537Z,72.69
2018-09-21T01:51:30.547Z,72.21
2018-09-21T01:52:30.497Z,73.08
2018-09-21T01:53:30.488Z,72.99
2018-09-21T01:54:30.488Z,72.89
2018-09-21T01:55:30.489Z,72.89
2018-09-21T01:56:30.484Z,72.89
2018-09-21T01:57:30.527Z,72.99
2018-09-21T01:58:30.485Z,72.89
2018-09-21T01:59:30.480Z,72.89
2018-09-21T02:00:30.479Z,72.73
2018-09-21T02:01:30.480Z,72.41
2018-09-21T02:02:30.479Z,72.63
2018-09-21T02:03:30.477Z,72.63
2018-09-21T02:04:30.478Z,71.96
2018-09-21T02:05:30.468Z,71.96
2018-09-21T02:06:30.467Z,71.48
2018-09-21T02:07:30.469Z,71.58
2018-09-21T02:08:30.464Z,71.19
2018-09-21T02:09:30.529Z,70.90
2018-09-21T02:10:30.465Z,71.00
2018-09-21T02:11:30.465Z,71.09
2018-09-21T02:12:30.464Z,70.90
2018-09-21T02:13:30.456Z,70.45
2018-09-21T02:14:30.456Z,69.87
2018-09-21T02:15:30.460Z,69.87
2018-09-21T02:16:30.460Z,69.78
2018-09-21T02:17:30.485Z,69.78
2018-09-21T02:18:30.450Z,70.06
2018-09-21T02:19:30.451Z,69.78
2018-09-21T02:20:30.448Z,69.78
2018-09-21T02:21:30.448Z,70.16
2018-09-21T02:22:30.450Z,70.06
2018-09-21T02:23:30.448Z,70.84
2018-09-21T02:24:30.449Z,70.64
2018-09-21T02:25:30.438Z,70.36
2018-09-21T02:26:30.471Z,70.45
2018-09-21T02:27:30.436Z,70.54
2018-09-21T02:28:30.435Z,70.26
2018-09-21T02:29:30.438Z,70.03
2018-09-21T02:30:30.438Z,70.45
2018-09-21T02:31:30.431Z,70.51
2018-09-21T02:32:30.430Z,70.45
2018-09-21T02:33:30.433Z,70.36
2018-09-21T02:34:30.433Z,70.32
2018-09-21T02:35:30.432Z,70.26
2018-09-21T02:36:30.429Z,70.36
2018-09-21T02:37:30.421Z,70.51
2018-09-21T02:38:30.420Z,70.84
2018-09-21T02:39:30.418Z,70.70
2018-09-21T02:40:30.417Z,71.09
2018-09-21T02:41:30.556Z,70.70
2018-09-21T02:42:30.418Z,70.80
2018-09-21T02:43:30.422Z,70.06
2018-09-21T02:44:30.418Z,70.22
2018-09-21T02:45:30.413Z,70.84
2018-09-21T02:46:30.409Z,70.54
2018-09-21T02:47:30.413Z,70.94
2018-09-21T02:48:30.411Z,70.94
2018-09-21T02:49:30.403Z,71.00
2018-09-21T02:50:30.403Z,70.61
2018-09-21T02:51:30.408Z,71.12
2018-09-21T02:52:30.401Z,70.90
2018-09-21T02:53:30.404Z,71.09
2018-09-21T02:54:30.401Z,70.94
2018-09-21T02:55:30.409Z,70.94
2018-09-21T02:56:30.400Z,70.94
2018-09-21T02:57:30.392Z,71.09
2018-09-21T02:58:30.392Z,71.28
2018-09-21T02:59:30.392Z,71.58
2018-09-21T03:00:30.449Z,71.77
2018-09-21T03:01:30.392Z,72.15
2018-09-21T03:02:30.392Z,71.96
2018-09-21T03:03:30.384Z,72.06
2018-09-21T03:04:30.385Z,72.15
2018-09-21T03:05:30.389Z,72.44
2018-09-21T03:06:30.384Z,72.63
2018-09-21T03:07:30.385Z,72.63
2018-09-21T03:08:30.383Z,73.11
2018-09-21T03:09:30.376Z,73.02
2018-09-21T03:10:30.378Z,73.11
2018-09-21T03:11:30.374Z,73.37
2018-09-21T03:12:30.372Z,73.41
2018-09-21T03:13:30.377Z,73.60
2018-09-21T03:14:30.374Z,73.85
2018-09-21T03:15:30.372Z,73.85
2018-09-21T03:16:30.370Z,73.85
2018-09-21T03:17:30.365Z,73.75
2018-09-21T03:18:30.364Z,73.85
2018-09-21T03:19:30.365Z,74.05
2018-09-21T03:20:30.365Z,74.05
2018-09-21T03:21:30.385Z,73.95
2018-09-21T03:22:30.357Z,73.95
2018-09-21T03:23:30.355Z,74.33
2018-09-21T03:24:30.354Z,74.14
2018-09-21T03:25:30.358Z,74.05
2018-09-21T03:26:30.356Z,73.75
2018-09-21T03:27:30.357Z,73.66
2018-09-21T03:28:30.354Z,73.89
2018-09-21T03:29:30.346Z,73.31
2018-09-21T03:30:30.345Z,73.75
2018-09-21T03:31:30.345Z,73.02
2018-09-21T03:32:30.342Z,73.31
2018-09-21T03:33:30.344Z,73.41
2018-09-21T03:34:30.343Z,73.11
2018-09-21T03:35:30.338Z,73.11
2018-09-21T03:36:30.337Z,73.02
2018-09-21T03:37:30.341Z,73.11
2018-09-21T03:38:30.337Z,73.11
2018-09-21T03:39:30.338Z,73.11
2018-09-21T03:40:30.335Z,73.31
2018-09-21T03:41:30.328Z,73.11
2018-09-21T03:42:30.327Z,73.11
2018-09-21T03:43:30.325Z,73.11
2018-09-21T03:44:30.325Z,73.21
2018-09-21T03:45:30.327Z,73.50
2018-09-21T03:46:30.326Z,73.31
2018-09-21T03:47:30.323Z,72.92
2018-09-21T03:48:30.331Z,73.02
2018-09-21T03:49:30.316Z,72.44
2018-09-21T03:50:30.315Z,72.34
2018-09-21T03:51:30.318Z,72.54
2018-09-21T03:52:30.317Z,72.06
2018-09-21T03:53:30.309Z,72.25
2018-09-21T03:54:30.308Z,71.58
2018-09-21T03:55:30.308Z,71.86
2018-09-21T03:56:30.306Z,72.06
2018-09-21T03:57:30.312Z,71.96
2018-09-21T03:58:30.307Z,71.86
2018-09-21T03:59:30.307Z,72.15
2018-09-21T04:00:30.305Z,71.86
2018-09-21T04:01:30.300Z,71.86
2018-09-21T04:02:30.304Z,71.67
2018-09-21T04:03:30.296Z,71.38
2018-09-21T04:04:30.293Z,71.48
2018-09-21T04:05:30.295Z,71.61
2018-09-21T04:06:30.295Z,71.38
2018-09-21T04:07:30.289Z,71.42
2018-09-21T04:08:30.287Z,71.03
2018-09-21T04:09:30.290Z,70.94
2018-09-21T04:10:30.288Z,70.54
2018-09-21T04:11:30.288Z,71.03
2018-09-21T04:12:30.287Z,70.94
2018-09-21T04:13:30.286Z,71.12
2018-09-21T04:14:30.279Z,70.94
2018-09-21T04:15:30.278Z,70.84
2018-09-21T04:16:30.276Z,71.12
2018-09-21T04:17:30.279Z,70.84
2018-09-21T04:18:30.278Z,70.84
2018-09-21T04:19:30.275Z,71.12
2018-09-21T04:20:30.275Z,71.03
2018-09-21T04:21:30.272Z,71.12
2018-09-21T04:22:30.267Z,71.32
2018-09-21T04:23:30.273Z,71.03
2018-09-21T04:24:30.268Z,71.12
2018-09-21T04:25:30.263Z,70.84
2018-09-21T04:26:30.263Z,70.74
2018-09-21T04:27:30.261Z,70.94
2018-09-21T04:28:30.259Z,70.84
2018-09-21T04:29:30.262Z,70.94
2018-09-21T04:30:30.263Z,70.94
2018-09-21T04:31:30.260Z,70.94
2018-09-21T04:32:30.261Z,70.94
2018-09-21T04:33:30.252Z,71.03
2018-09-21T04:34:30.250Z,71.12
2018-09-21T04:35:30.259Z,70.94
2018-09-21T04:36:30.251Z,71.03
2018-09-21T04:37:30.250Z,71.03
2018-09-21T04:38:30.250Z,70.45
2018-09-21T04:39:30.244Z,71.06
2018-09-21T04:40:30.243Z,71.26
2018-09-21T04:41:30.245Z,71.26
2018-09-21T04:42:30.251Z,71.36
2018-09-21T04:43:30.244Z,71.55
2018-09-21T04:44:30.243Z,71.55
2018-09-21T04:45:30.239Z,71.64
2018-09-21T04:46:30.235Z,71.74
2018-09-21T04:47:30.233Z,71.55
2018-09-21T04:48:30.233Z,71.45
2018-09-21T04:49:30.235Z,71.84
2018-09-21T04:50:30.240Z,72.03
2018-09-21T04:51:30.233Z,71.74
2018-09-21T04:52:30.240Z,71.94
2018-09-21T04:53:30.227Z,72.03
2018-09-21T04:54:30.229Z,72.03
2018-09-21T04:55:30.228Z,71.94
2018-09-21T04:56:30.227Z,72.03
2018-09-21T04:57:30.220Z,71.94
2018-09-21T04:58:30.220Z,71.94
2018-09-21T04:59:30.218Z,71.94
2018-09-21T05:00:30.218Z,72.03
2018-09-21T05:01:30.220Z,72.71
2018-09-21T05:02:30.219Z,72.71
2018-09-21T05:03:30.220Z,72.42
2018-09-21T05:04:30.217Z,72.61
2018-09-21T05:05:30.212Z,73.00
2018-09-21T05:06:30.209Z,72.90
2018-09-21T05:07:30.213Z,73.67
2018-09-21T05:08:30.208Z,73.28
2018-09-21T05:09:30.211Z,73.58
2018-09-21T05:10:30.214Z,73.48
2018-09-21T05:11:30.204Z,73.96
2018-09-21T05:12:30.206Z,73.96
2018-09-21T05:13:30.206Z,73.96
2018-09-21T05:14:30.205Z,74.06
2018-09-21T05:15:30.204Z,74.35
2018-09-21T05:16:30.202Z,74.54
2018-09-21T05:17:30.197Z,74.44
2018-09-21T05:18:30.195Z,74.16
2018-09-21T05:19:30.197Z,74.64
2018-09-21T05:20:30.194Z,74.54
2018-09-21T05:21:30.196Z,74.93
2018-09-21T05:22:30.196Z,74.77
2018-09-21T05:23:30.196Z,74.77
2018-09-21T05:24:30.195Z,74.38
2018-09-21T05:25:30.189Z,74.87
2018-09-21T05:26:30.188Z,74.38
2018-09-21T05:27:30.305Z,74.19
2018-09-21T05:28:30.191Z,74.38
2018-09-21T05:29:30.185Z,74.77
2018-09-21T05:30:30.184Z,74.48
2018-09-21T05:31:30.182Z,74.19
2018-09-21T05:32:30.181Z,74.19
2018-09-21T05:33:30.186Z,74.00
2018-09-21T05:34:30.225Z,74.29
2018-09-21T05:35:30.182Z,74.58
2018-09-21T05:36:30.182Z,74.19
2018-09-21T05:37:30.177Z,74.19
2018-09-21T05:38:30.178Z,74.19
2018-09-21T05:39:30.178Z,74.38
2018-09-21T05:40:30.174Z,74.29
2018-09-21T05:41:30.178Z,74.38
2018-09-21T05:42:30.176Z,73.94
2018-09-21T05:43:30.173Z,73.36
2018-09-21T05:44:30.172Z,73.55
2018-09-21T05:45:30.177Z,73.32
2018-09-21T05:46:30.173Z,73.42
2018-09-21T05:47:30.173Z,73.32
2018-09-21T05:48:30.172Z,73.71
2018-09-21T05:49:30.169Z,73.32
2018-09-21T05:50:30.165Z,73.32
2018-09-21T05:51:30.164Z,73.13
2018-09-21T05:52:30.162Z,73.42
2018-09-21T05:53:30.166Z,73.42
2018-09-21T05:54:30.166Z,73.52
2018-09-21T05:55:30.166Z,73.80
2018-09-21T05:56:30.171Z,73.55
2018-09-21T05:57:30.162Z,73.52
2018-09-21T05:58:30.158Z,73.36
2018-09-21T05:59:30.163Z,74.19
2018-09-21T06:00:30.161Z,73.80
2018-09-21T06:01:30.157Z,73.61
2018-09-21T06:02:30.221Z,73.55
2018-09-21T06:03:30.155Z,73.71
2018-09-21T06:04:30.154Z,73.52
2018-09-21T06:05:30.156Z,73.61
2018-09-21T06:06:30.156Z,73.61
2018-09-21T06:07:30.156Z,73.71
2018-09-21T06:08:30.156Z,73.71
2018-09-21T06:09:30.149Z,73.52
2018-09-21T06:10:30.149Z,73.32
2018-09-21T06:11:30.148Z,73.52
2018-09-21T06:12:30.148Z,73.22
2018-09-21T06:13:30.159Z,73.61
2018-09-21T06:14:30.151Z,73.32
2018-09-21T06:15:30.151Z,73.07
2018-09-21T06:16:30.145Z,72.55
2018-09-21T06:17:30.150Z,71.97
2018-09-21T06:18:30.151Z,71.68
2018-09-21T06:19:30.221Z,71.58
2018-09-21T06:20:30.147Z,71.39
2018-09-21T06:21:30.141Z,70.72
2018-09-21T06:22:30.149Z,70.90
2018-09-21T06:23:30.139Z,71.20
2018-09-21T06:24:30.140Z,71.00
2018-09-21T06:25:30.143Z,70.65
2018-09-21T06:26:30.141Z,70.52
2018-09-21T06:27:30.141Z,70.14
2018-09-21T06:28:30.141Z,70.14
2018-09-21T06:29:30.134Z,70.32
2018-09-21T06:30:30.134Z,69.78
2018-09-21T06:31:30.139Z,68.98
2018-09-21T06:32:30.139Z,68.72
2018-09-21T06:33:30.133Z,69.07
2018-09-21T06:34:30.136Z,68.62
2018-09-21T06:35:30.132Z,68.10
2018-09-21T06:36:30.131Z,68.20
2018-09-21T06:37:30.134Z,68.20
2018-09-21T06:38:30.134Z,68.10
2018-09-21T06:39:30.137Z,67.72
2018-09-21T06:40:30.134Z,67.66
2018-09-21T06:41:30.126Z,67.33
2018-09-21T06:42:30.157Z,67.66
2018-09-21T06:43:30.125Z,67.33
2018-09-21T06:44:30.126Z,67.91
2018-09-21T06:45:30.128Z,67.52
2018-09-21T06:46:30.127Z,67.04
2018-09-21T06:47:30.124Z,67.14
2018-09-21T06:48:30.124Z,67.14
2018-09-21T06:49:30.132Z,66.85
2018-09-21T06:50:30.127Z,67.14
2018-09-21T06:51:30.127Z,65.78
2018-09-21T06:52:30.126Z,66.27
2018-09-21T06:53:30.120Z,66.08
2018-09-21T06:54:30.120Z,66.27
2018-09-21T06:55:30.118Z,66.36
2018-09-21T06:56:30.119Z,65.78
2018-09-21T06:57:30.123Z,65.69
2018-09-21T06:58:30.122Z,65.69
2018-09-21T06:59:30.121Z,65.40
2018-09-21T07:00:30.121Z,64.05
2018-09-21T07:01:30.137Z,64.34
2018-09-21T07:02:30.115Z,64.43
2018-09-21T07:03:30.120Z,64.14
2018-09-21T07:04:30.118Z,63.56
2018-09-21T07:05:30.112Z,64.14
2018-09-21T07:06:30.111Z,64.14
2018-09-21T07:07:30.111Z,63.76
2018-09-21T07:08:30.112Z,63.18
2018-09-21T07:09:30.116Z,62.89
2018-09-21T07:10:30.115Z,63.18
2018-09-21T07:11:30.112Z,62.98
2018-09-21T07:12:30.112Z,62.98
2018-09-21T07:13:30.108Z,62.98
2018-09-21T07:14:30.107Z,63.56
2018-09-21T07:15:30.107Z,63.95
2018-09-21T07:16:30.107Z,64.63
2018-09-21T07:17:30.110Z,64.63
2018-09-21T07:18:30.110Z,64.24
2018-09-21T07:19:30.104Z,64.34
2018-09-21T07:20:30.104Z,64.05
2018-09-21T07:21:30.110Z,63.95
2018-09-21T07:22:30.107Z,64.14
2018-09-21T07:23:30.106Z,63.37
2018-09-21T07:24:30.107Z,63.47
2018-09-21T07:25:30.099Z,63.69
2018-09-21T07:26:30.101Z,63.85
2018-09-21T07:27:30.099Z,63.47
2018-09-21T07:28:30.098Z,63.56
2018-09-21T07:29:30.103Z,63.18
2018-09-21T07:30:30.102Z,62.98
2018-09-21T07:31:30.103Z,62.98
2018-09-21T07:32:30.102Z,62.89
2018-09-21T07:33:30.095Z,63.18
2018-09-21T07:34:30.095Z,63.69
2018-09-21T07:35:30.103Z,63.47
2018-09-21T07:36:30.100Z,64.24
2018-09-21T07:37:30.143Z,64.63
2018-09-21T07:38:30.097Z,65.40
2018-09-21T07:39:30.092Z,65.69
2018-09-21T07:40:30.092Z,65.78
2018-09-21T07:41:30.096Z,65.98
2018-09-21T07:42:30.096Z,66.36
2018-09-21T07:43:30.095Z,66.17
2018-09-21T07:44:30.108Z,66.27
2018-09-21T07:45:30.090Z,66.56
2018-09-21T07:46:30.091Z,67.04
2018-09-21T07:47:30.088Z,66.56
2018-09-21T07:48:30.089Z,67.14
2018-09-21T07:49:30.092Z,67.49
2018-09-21T07:50:30.146Z,67.40
2018-09-21T07:51:30.085Z,67.69
2018-09-21T07:52:30.086Z,68.07
2018-09-21T07:53:30.089Z,68.55
2018-09-21T07:54:30.134Z,68.65
2018-09-21T07:55:30.088Z,69.04
2018-09-21T07:56:30.087Z,69.13
2018-09-21T07:57:30.082Z,68.46
2018-09-21T07:58:30.081Z,68.26
2018-09-21T07:59:30.081Z,67.88
2018-09-21T08:00:30.081Z,68.07
2018-09-21T08:01:30.084Z,68.55
2018-09-21T08:02:30.083Z,67.97
2018-09-21T08:03:30.084Z,68.46
2018-09-21T08:04:30.084Z,67.78
2018-09-21T08:05:30.077Z,68.59
2018-09-21T08:06:30.077Z,67.88
2018-09-21T08:07:30.082Z,68.17
2018-09-21T08:08:30.081Z,68.46
2018-09-21T08:09:30.076Z,68.36
2018-09-21T08:10:30.076Z,68.65
2018-09-21T08:11:30.073Z,68.26
2018-09-21T08:12:30.074Z,68.94
2018-09-21T08:13:30.077Z,68.84
2018-09-21T08:14:30.077Z,68.94
2018-09-21T08:15:30.072Z,70.00
2018-09-21T08:16:30.071Z,70.10
2018-09-21T08:17:30.076Z,70.29
2018-09-21T08:18:30.075Z,71.06
2018-09-21T08:19:30.097Z,71.55
2018-09-21T08:20:30.075Z,72.52
2018-09-21T08:21:30.069Z,73.06
2018-09-21T08:22:30.118Z,72.96
2018-09-21T08:23:30.074Z,73.73
2018-09-21T08:24:30.072Z,74.02
2018-09-21T08:25:30.066Z,73.93
2018-09-21T08:26:30.071Z,74.12
2018-09-21T08:27:30.066Z,74.12
2018-09-21T08:28:30.065Z,74.99
2018-09-21T08:29:30.069Z,75.27
2018-09-21T08:30:30.067Z,76.53
2018-09-21T08:31:30.100Z,79.00
2018-09-21T08:32:30.067Z,80.45
2018-09-21T08:33:30.061Z,81.85
2018-09-21T08:34:30.060Z,83.64
2018-09-21T08:35:30.063Z,84.52
2018-09-21T08:36:30.060Z,86.15
2018-09-21T08:37:30.063Z,86.88
2018-09-21T08:38:30.062Z,88.13
2018-09-21T08:39:30.057Z,89.43
2018-09-21T08:40:30.056Z,90.55
2018-09-21T08:41:30.060Z,91.75
2018-09-21T08:42:30.062Z,93.05
2018-09-21T08:43:30.056Z,92.81
2018-09-21T08:44:30.055Z,92.81
2018-09-21T08:45:30.053Z,92.29
2018-09-21T08:46:30.046Z,93.10
2018-09-21T08:47:30.046Z,92.72
2018-09-21T08:48:30.044Z,92.29
2018-09-21T08:49:30.045Z,93.06
2018-09-21T08:50:30.046Z,93.01
2018-09-21T08:51:30.042Z,92.63
2018-09-21T08:52:30.040Z,93.40
2018-09-21T08:53:30.033Z,93.16
2018-09-21T08:54:30.029Z,93.35
2018-09-21T08:55:30.032Z,93.54
2018-09-21T08:56:30.030Z,93.83
2018-09-21T08:57:30.022Z,93.35
2018-09-21T08:58:30.019Z,93.54
2018-09-21T08:59:30.030Z,93.26
2018-09-21T09:00:30.015Z,92.49
2018-09-21T09:01:30.015Z,92.68
2018-09-21T09:02:30.013Z,92.68
2018-09-21T09:03:30.081Z,92.87
2018-09-21T09:04:30.005Z,92.68
2018-09-21T09:05:29.997Z,93.16
2018-09-21T09:06:29.999Z,93.26
2018-09-21T09:07:29.992Z,92.49
2018-09-21T09:08:29.988Z,92.82
2018-09-21T09:09:29.990Z,92.82
2018-09-21T09:10:29.987Z,92.77
2018-09-21T09:11:29.982Z,92.92
2018-09-21T09:12:29.975Z,93.59
2018-09-21T09:13:29.977Z,93.98
2018-09-21T09:14:29.974Z,93.35
2018-09-21T09:15:29.971Z,94.21
2018-09-21T09:16:29.967Z,93.69
2018-09-21T09:17:29.959Z,94.02
2018-09-21T09:18:29.956Z,93.69
2018-09-21T09:19:29.953Z,93.40
2018-09-21T09:20:29.949Z,93.35
2018-09-21T09:21:29.951Z,93.54
2018-09-21T09:22:29.947Z,93.54
2018-09-21T09:23:29.947Z,93.06
2018-09-21T09:24:29.986Z,93.35
2018-09-21T09:25:29.936Z,93.73
2018-09-21T09:26:29.928Z,93.35
2018-09-21T09:27:29.929Z,93.83
2018-09-21T09:28:29.926Z,93.69
2018-09-21T09:29:29.919Z,93.83
2018-09-21T09:30:29.938Z,93.54
2018-09-21T09:31:29.913Z,94.02
2018-09-21T09:32:29.953Z,94.12
2018-09-21T09:33:29.910Z,93.54
2018-09-21T09:34:29.910Z,92.97
2018-09-21T09:35:29.904Z,92.97
2018-09-21T09:36:29.901Z,92.97
2018-09-21T09:37:29.891Z,93.26
2018-09-21T09:38:29.889Z,93.63
2018-09-21T09:39:29.886Z,92.97
2018-09-21T09:40:29.882Z,92.87
2018-09-21T09:41:29.883Z,92.87
2018-09-21T09:42:29.880Z,93.35
2018-09-21T09:43:29.873Z,93.69
2018-09-21T09:44:29.870Z,93.78
2018-09-21T09:45:29.870Z,93.49
2018-09-21T09:46:29.867Z,94.02
2018-09-21T09:47:29.865Z,93.44
2018-09-21T09:48:29.873Z,94.31
2018-09-21T09:49:29.854Z,94.31
2018-09-21T09:50:29.851Z,93.73
2018-09-21T09:51:29.847Z,94.31
2018-09-21T09:52:29.844Z,93.93
2018-09-21T09:53:29.846Z,93.26
2018-09-21T09:54:29.844Z,94.40
2018-09-21T09:55:29.839Z,93.44
2018-09-21T09:56:29.838Z,94.50
2018-09-21T09:57:29.826Z,94.59
2018-09-21T09:58:29.825Z,94.31
2018-09-21T09:59:29.827Z,94.02
2018-09-21T10:00:29.824Z,94.12
2018-09-21T10:01:29.814Z,93.93
2018-09-21T10:02:29.820Z,93.83
2018-09-21T10:03:29.869Z,94.02
2018-09-21T10:04:29.807Z,94.69
2018-09-21T10:05:29.808Z,93.93
2018-09-21T10:06:29.805Z,94.31
2018-09-21T10:07:29.802Z,93.35
2018-09-21T10:08:29.799Z,94.21
2018-09-21T10:09:29.790Z,94.07
2018-09-21T10:10:29.837Z,93.88
2018-09-21T10:11:29.785Z,94.07
2018-09-21T10:12:29.782Z,93.40
2018-09-21T10:13:29.782Z,93.30
2018-09-21T10:14:29.780Z,93.78
2018-09-21T10:15:29.773Z,93.40
2018-09-21T10:16:29.787Z,93.49
2018-09-21T10:17:29.771Z,92.72
2018-09-21T10:18:29.768Z,92.82
2018-09-21T10:19:29.766Z,92.91
2018-09-21T10:20:29.815Z,93.30
2018-09-21T10:21:29.755Z,92.91
2018-09-21T10:22:29.752Z,93.30
2018-09-21T10:23:29.751Z,92.82
2018-09-21T10:24:29.759Z,93.06
2018-09-21T10:25:29.747Z,93.01
2018-09-21T10:26:29.745Z,93.06
2018-09-21T10:27:29.943Z,92.77
2018-09-21T10:28:30.003Z,92.68
2018-09-21T10:29:29.736Z,92.77
2018-09-21T10:30:29.735Z,92.58
2018-09-21T10:31:29.732Z,92.58
2018-09-21T10:32:29.729Z,92.96
2018-09-21T10:33:29.796Z,92.58
2018-09-21T10:34:29.751Z,91.62
2018-09-21T10:35:29.813Z,91.72
2018-09-21T10:36:29.722Z,92.39
2018-09-21T10:37:29.716Z,92.19
2018-09-21T10:38:29.713Z,92.10
2018-09-21T10:39:29.728Z,92.10
2018-09-21T10:40:29.820Z,92.14
2018-09-21T10:41:29.702Z,91.66
2018-09-21T10:42:29.739Z,92.33
2018-09-21T10:43:29.698Z,91.86
2018-09-21T10:44:29.696Z,92.33
2018-09-21T10:45:29.700Z,91.19
2018-09-21T10:46:29.695Z,91.76
2018-09-21T10:47:29.689Z,92.05
2018-09-21T10:48:29.687Z,92.05
2018-09-21T10:49:29.688Z,90.13
2018-09-21T10:50:29.687Z,91.38
2018-09-21T10:51:29.683Z,91.81
2018-09-21T10:52:29.682Z,91.66
2018-09-21T10:53:29.674Z,91.76
2018-09-21T10:54:29.673Z,91.66
2018-09-21T10:55:29.672Z,91.76
2018-09-21T10:56:29.669Z,91.96
2018-09-21T10:57:29.670Z,92.33
2018-09-21T10:58:29.710Z,91.66
2018-09-21T10:59:29.667Z,91.76
2018-09-21T11:00:29.717Z,91.38
2018-09-21T11:01:29.656Z,90.99
2018-09-21T11:02:29.656Z,91.66
2018-09-21T11:03:29.658Z,91.81
2018-09-21T11:04:29.657Z,91.28
2018-09-21T11:05:29.650Z,91.38
2018-09-21T11:06:29.647Z,90.52
2018-09-21T11:07:29.645Z,90.90
2018-09-21T11:08:29.644Z,91.47
2018-09-21T11:09:29.644Z,90.90
2018-09-21T11:10:29.643Z,90.99
2018-09-21T11:11:29.641Z,90.90
2018-09-21T11:12:29.639Z,90.42
2018-09-21T11:13:29.632Z,90.61
2018-09-21T11:14:29.630Z,91.57
2018-09-21T11:15:29.628Z,91.96
2018-09-21T11:16:29.626Z,91.66
2018-09-21T11:17:29.628Z,91.96
2018-09-21T11:18:29.625Z,91.19
2018-09-21T11:19:29.621Z,90.70
2018-09-21T11:20:29.617Z,90.80
2018-09-21T11:21:29.619Z,90.80
2018-09-21T11:22:29.617Z,91.57
2018-09-21T11:23:29.614Z,92.53
2018-09-21T11:24:29.612Z,90.99
2018-09-21T11:25:29.605Z,90.42
2018-09-21T11:26:29.603Z,91.09
2018-09-21T11:27:29.603Z,90.70
2018-09-21T11:28:29.599Z,90.22
2018-09-21T11:29:29.601Z,91.47
2018-09-21T11:30:29.598Z,91.09
2018-09-21T11:31:29.605Z,92.10
2018-09-21T11:32:29.594Z,91.52
2018-09-21T11:33:29.588Z,91.13
2018-09-21T11:34:29.584Z,90.56
2018-09-21T11:35:29.588Z,90.75
2018-09-21T11:36:29.584Z,90.56
2018-09-21T11:37:29.577Z,91.23
2018-09-21T11:38:29.575Z,90.56
2018-09-21T11:39:29.575Z,90.22
2018-09-21T11:40:29.574Z,90.22
2018-09-21T11:41:29.574Z,89.30
2018-09-21T11:42:29.585Z,88.82
2018-09-21T11:43:29.576Z,89.06
2018-09-21T11:44:29.569Z,89.01
2018-09-21T11:45:29.562Z,87.95
2018-09-21T11:46:29.561Z,86.79
2018-09-21T11:47:29.693Z,86.45
2018-09-21T11:48:29.560Z,85.87
2018-09-21T11:49:29.560Z,84.91
2018-09-21T11:50:29.558Z,83.99
2018-09-21T11:51:29.553Z,83.03
2018-09-21T11:52:29.552Z,83.12
2018-09-21T11:53:29.557Z,82.54
2018-09-21T11:54:29.556Z,81.48
2018-09-21T11:55:29.558Z,80.62
2018-09-21T11:56:29.557Z,80.77
2018-09-21T11:57:29.554Z,80.62
2018-09-21T11:58:29.550Z,79.43
2018-09-21T11:59:29.550Z,79.85
2018-09-21T12:00:29.550Z,78.27
2018-09-21T12:01:29.553Z,78.13
2018-09-21T12:02:29.553Z,77.94
2018-09-21T12:03:29.553Z,78.03
2018-09-21T12:04:29.552Z,78.71
2018-09-21T12:05:29.546Z,79.35
2018-09-21T12:06:29.548Z,79.53
2018-09-21T12:07:29.550Z,80.40
2018-09-21T12:08:29.550Z,80.88
2018-09-21T12:09:29.544Z,80.65
2018-09-21T12:10:29.604Z,80.55
2018-09-21T12:11:29.543Z,80.65
2018-09-21T12:12:29.544Z,81.42
2018-09-21T12:13:29.546Z,81.23
2018-09-21T12:14:29.545Z,80.84
2018-09-21T12:15:29.544Z,81.23
2018-09-21T12:16:29.543Z,80.84
2018-09-21T12:17:29.537Z,81.32
2018-09-21T12:18:29.536Z,81.23
2018-09-21T12:19:29.535Z,80.36
2018-09-21T12:20:29.548Z,80.36
2018-09-21T12:21:29.537Z,81.04
2018-09-21T12:22:29.540Z,80.84
2018-09-21T12:23:29.528Z,81.42
2018-09-21T12:24:29.529Z,81.23
2018-09-21T12:25:29.531Z,81.13
2018-09-21T12:26:29.529Z,80.75
2018-09-21T12:27:29.530Z,80.84
2018-09-21T12:28:29.529Z,81.04
2018-09-21T12:29:29.522Z,80.36
2018-09-21T12:30:29.611Z,80.17
2018-09-21T12:31:29.520Z,80.27
2018-09-21T12:32:29.519Z,79.50
2018-09-21T12:33:29.521Z,79.40
2018-09-21T12:34:29.518Z,79.05
2018-09-21T12:35:29.518Z,79.15
2018-09-21T12:36:29.595Z,79.11
2018-09-21T12:37:29.510Z,79.30
2018-09-21T12:38:29.565Z,79.15
2018-09-21T12:39:29.513Z,78.77
2018-09-21T12:40:29.513Z,79.15
2018-09-21T12:41:29.506Z,78.23
2018-09-21T12:42:29.579Z,78.42
2018-09-21T12:43:29.504Z,77.56
2018-09-21T12:44:29.514Z,76.88
2018-09-21T12:45:29.506Z,76.21
2018-09-21T12:46:29.516Z,75.92
2018-09-21T12:47:29.511Z,75.34
2018-09-21T12:48:29.505Z,74.76
2018-09-21T12:49:29.497Z,74.09
2018-09-21T12:50:29.664Z,73.90
2018-09-21T12:51:29.495Z,73.32
2018-09-21T12:52:29.498Z,73.32